createdAt,value
2022-10-06T00:01:48.940Z,100616.31
2022-10-06T00:04:17.281Z,100620.00
2022-10-06T00:06:45.557Z,100615.66
2022-10-06T00:09:13.907Z,100622.25
2022-10-06T00:11:42.197Z,100619.09
2022-10-06T00:14:10.619Z,100619.31
2022-10-06T00:16:39.043Z,100627.34
2022-10-06T00:19:07.319Z,100625.69
2022-10-06T00:21:36.090Z,100628.38
2022-10-06T00:24:04.536Z,100631.22
2022-10-06T00:26:32.872Z,100639.09
2022-10-06T00:29:01.207Z,100639.47
2022-10-06T00:31:29.653Z,100644.81
2022-10-06T00:33:58.027Z,100641.31
2022-10-06T00:36:28.353Z,100631.81
2022-10-06T00:38:56.748Z,100626.81
2022-10-06T00:41:25.428Z,100637.72
2022-10-06T00:47:56.159Z,100645.66
2022-10-06T00:50:24.588Z,100662.09
2022-10-06T00:52:53.165Z,100653.81
2022-10-06T00:55:22.479Z,100651.50
2022-10-06T00:57:53.570Z,100650.00
2022-10-06T01:00:22.203Z,100662.94
2022-10-06T01:02:58.055Z,100672.03
2022-10-06T01:05:36.542Z,100671.34
2022-10-06T01:08:05.102Z,100671.56
2022-10-06T01:10:33.480Z,100674.88
2022-10-06T01:13:02.588Z,100666.47
2022-10-06T01:15:31.377Z,100664.44
2022-10-06T01:18:05.899Z,100673.56
2022-10-06T01:20:38.486Z,100663.13
2022-10-06T01:23:10.142Z,100666.09
2022-10-06T01:25:39.115Z,100663.31
2022-10-06T01:28:09.475Z,100661.16
2022-10-06T01:30:54.389Z,100664.59
2022-10-06T01:33:24.014Z,100669.19
2022-10-06T01:35:53.971Z,100667.56
2022-10-06T01:38:22.766Z,100668.41
2022-10-06T01:40:53.759Z,100664.50
2022-10-06T01:43:22.664Z,100669.88
2022-10-06T01:45:58.428Z,100670.09
2022-10-06T01:48:27.786Z,100664.91
2022-10-06T01:50:56.829Z,100665.91
2022-10-06T01:53:25.245Z,100672.31
2022-10-06T01:55:58.411Z,100668.59
2022-10-06T01:58:27.525Z,100669.38
2022-10-06T02:00:56.501Z,100678.13
2022-10-06T02:03:24.871Z,100688.41
2022-10-06T02:05:53.416Z,100685.28
2022-10-06T02:08:21.862Z,100680.28
2022-10-06T02:10:50.637Z,100682.53
2022-10-06T02:13:19.188Z,100684.75
2022-10-06T02:15:47.571Z,100694.84
2022-10-06T02:18:16.147Z,100688.03
2022-10-06T02:20:44.539Z,100696.44
2022-10-06T02:23:12.906Z,100688.78
2022-10-06T02:25:41.349Z,100694.53
2022-10-06T02:28:09.967Z,100708.28
2022-10-06T02:30:39.333Z,100705.97
2022-10-06T02:33:07.823Z,100710.06
2022-10-06T02:35:36.321Z,100716.81
2022-10-06T02:38:04.806Z,100727.91
2022-10-06T02:40:33.219Z,100721.25
2022-10-06T02:43:01.972Z,100736.88
2022-10-06T02:45:31.162Z,100739.78
2022-10-06T02:47:59.611Z,100745.50
2022-10-06T02:50:28.087Z,100745.50
2022-10-06T02:52:57.085Z,100758.06
2022-10-06T02:55:25.749Z,100759.72
2022-10-06T02:58:00.280Z,100759.53
2022-10-06T03:00:28.928Z,100772.09
2022-10-06T03:02:57.304Z,100771.09
2022-10-06T03:05:25.987Z,100771.72
2022-10-06T03:07:54.334Z,100777.38
2022-10-06T03:10:25.895Z,100778.66
2022-10-06T03:12:54.251Z,100770.69
2022-10-06T03:15:22.709Z,100773.28
2022-10-06T03:17:52.581Z,100776.50
2022-10-06T03:20:21.015Z,100774.56
2022-10-06T03:22:49.868Z,100779.81
2022-10-06T03:25:18.607Z,100781.16
2022-10-06T03:27:47.082Z,100785.41
2022-10-06T03:30:15.834Z,100789.81
2022-10-06T03:32:44.323Z,100795.47
2022-10-06T03:35:12.740Z,100791.72
2022-10-06T03:37:41.178Z,100798.59
2022-10-06T03:40:10.442Z,100802.53
2022-10-06T03:42:38.873Z,100812.88
2022-10-06T03:45:08.025Z,100818.09
2022-10-06T03:47:36.483Z,100826.97
2022-10-06T03:50:04.857Z,100833.19
2022-10-06T03:52:34.010Z,100827.59
2022-10-06T03:55:02.459Z,100832.59
2022-10-06T03:57:39.850Z,100832.41
2022-10-06T04:00:10.662Z,100849.97
2022-10-06T04:02:39.051Z,100853.31
2022-10-06T04:05:08.199Z,100864.03
2022-10-06T04:07:36.550Z,100870.25
2022-10-06T04:10:05.066Z,100868.59
2022-10-06T04:12:33.444Z,100888.88
2022-10-06T04:15:02.465Z,100886.00
2022-10-06T04:17:31.183Z,100885.63
2022-10-06T04:19:59.571Z,100902.19
2022-10-06T04:22:27.962Z,100896.66
2022-10-06T04:24:56.481Z,100908.22
2022-10-06T04:27:31.189Z,100911.72
2022-10-06T04:30:09.113Z,100918.75
2022-10-06T04:32:38.239Z,100923.13
2022-10-06T04:35:06.894Z,100930.34
2022-10-06T04:37:35.257Z,100944.59
2022-10-06T04:40:03.816Z,100961.72
2022-10-06T04:42:35.221Z,100979.69
2022-10-06T04:45:05.829Z,100981.81
2022-10-06T04:47:41.393Z,100985.72
2022-10-06T04:50:10.420Z,100972.22
2022-10-06T04:52:39.099Z,100981.50
2022-10-06T04:55:08.071Z,100978.31
2022-10-06T05:00:58.462Z,101008.84
2022-10-06T05:03:28.964Z,101012.09
2022-10-06T05:06:09.202Z,101020.13
2022-10-06T05:08:37.603Z,101025.50
2022-10-06T05:11:13.639Z,101039.97
2022-10-06T05:13:45.150Z,101045.50
2022-10-06T05:16:18.348Z,101043.19
2022-10-06T05:18:46.667Z,101053.47
2022-10-06T05:21:21.566Z,101047.94
2022-10-06T05:23:50.096Z,101048.94
2022-10-06T05:26:23.004Z,101065.22
2022-10-06T05:28:51.485Z,101074.47
2022-10-06T05:31:32.057Z,101090.41
2022-10-06T05:34:01.023Z,101106.06
2022-10-06T05:36:31.998Z,101120.31
2022-10-06T05:39:00.713Z,101129.38
2022-10-06T05:41:34.579Z,101136.13
2022-10-06T05:44:03.266Z,101126.97
2022-10-06T05:46:42.355Z,101117.97
2022-10-06T05:49:13.828Z,101124.41
2022-10-06T05:51:42.818Z,101138.59
2022-10-06T05:54:11.273Z,101152.56
2022-10-06T05:56:40.059Z,101152.94
2022-10-06T05:59:08.650Z,101146.72
2022-10-06T06:01:42.664Z,101159.81
2022-10-06T06:04:13.398Z,101167.22
2022-10-06T06:06:45.243Z,101174.78
2022-10-06T06:09:15.465Z,101188.38
2022-10-06T06:11:47.047Z,101211.72
2022-10-06T06:14:18.821Z,101202.91
2022-10-06T06:16:46.667Z,101203.38
2022-10-06T06:19:16.228Z,101206.06
2022-10-06T06:21:44.657Z,101207.72
2022-10-06T06:24:13.008Z,101210.88
2022-10-06T06:26:41.758Z,101215.25
2022-10-06T06:29:10.134Z,101216.38
2022-10-06T06:31:41.303Z,101218.69
2022-10-06T06:34:16.847Z,101227.44
2022-10-06T06:36:47.561Z,101234.28
2022-10-06T06:39:18.709Z,101234.94
2022-10-06T06:41:47.775Z,101248.19
2022-10-06T06:44:16.519Z,101250.19
2022-10-06T06:46:49.236Z,101255.53
2022-10-06T06:49:19.437Z,101270.47
2022-10-06T06:51:50.814Z,101270.47
2022-10-06T06:54:19.567Z,101272.31
2022-10-06T06:56:48.932Z,101286.88
2022-10-06T06:59:17.927Z,101287.19
2022-10-06T07:01:47.373Z,101292.56
2022-10-06T07:04:17.927Z,101306.63
2022-10-06T07:06:57.047Z,101305.78
2022-10-06T07:09:27.054Z,101307.47
2022-10-06T07:11:56.043Z,101306.78
2022-10-06T07:14:24.512Z,101320.88
2022-10-06T07:17:10.279Z,101324.56
2022-10-06T07:19:56.216Z,101325.69
2022-10-06T07:22:44.061Z,101335.91
2022-10-06T07:25:26.931Z,101349.81
2022-10-06T07:27:55.759Z,101348.31
2022-10-06T07:30:29.676Z,101364.94
2022-10-06T07:32:58.042Z,101364.16
2022-10-06T07:35:26.775Z,101362.81
2022-10-06T07:37:55.302Z,101376.56
2022-10-06T07:40:23.907Z,101367.69
2022-10-06T07:42:52.864Z,101372.06
2022-10-06T07:45:39.720Z,101373.53
2022-10-06T07:48:15.579Z,101382.09
2022-10-06T07:50:45.776Z,101377.06
2022-10-06T07:53:14.329Z,101378.72
2022-10-06T07:55:45.165Z,101378.41
2022-10-06T07:58:20.072Z,101389.78
2022-10-06T08:00:49.510Z,101394.63
2022-10-06T08:03:18.899Z,101399.16
2022-10-06T08:05:51.667Z,101401.50
2022-10-06T08:08:20.069Z,101409.72
2022-10-06T08:10:55.179Z,101402.16
2022-10-06T08:13:23.901Z,101412.72
2022-10-06T08:15:54.882Z,101411.34
2022-10-06T08:18:45.381Z,101411.69
2022-10-06T08:21:19.606Z,101428.44
2022-10-06T08:23:49.886Z,101432.09
2022-10-06T08:26:23.150Z,101433.94
2022-10-06T08:28:53.961Z,101440.28
2022-10-06T08:31:24.299Z,101448.63
2022-10-06T08:33:57.173Z,101443.94
2022-10-06T08:36:31.473Z,101446.09
2022-10-06T08:39:00.381Z,101445.28
2022-10-06T08:41:48.491Z,101446.75
2022-10-06T08:44:18.621Z,101453.63
2022-10-06T08:47:36.179Z,101446.38
2022-10-06T08:50:12.189Z,101457.09
2022-10-06T08:53:07.494Z,101464.66
2022-10-06T08:55:52.811Z,101468.69
2022-10-06T08:58:58.413Z,101459.59
2022-10-06T09:01:44.970Z,101466.84
2022-10-06T09:04:29.511Z,101476.56
2022-10-06T09:07:11.407Z,101476.03
2022-10-06T09:10:23.159Z,101475.97
2022-10-06T09:12:58.948Z,101486.69
2022-10-06T09:15:55.186Z,101499.25
2022-10-06T09:19:03.515Z,101498.81
2022-10-06T09:21:36.376Z,101499.25
2022-10-06T09:24:14.658Z,101504.69
2022-10-06T09:26:46.396Z,101503.72
2022-10-06T09:29:15.341Z,101495.94
2022-10-06T09:31:50.687Z,101504.84
2022-10-06T09:34:25.414Z,101505.34
2022-10-06T09:37:01.946Z,101516.03
2022-10-06T09:39:36.626Z,101515.03
2022-10-06T09:42:35.579Z,101518.00
2022-10-06T09:45:08.477Z,101516.53
2022-10-06T09:47:45.966Z,101524.31
2022-10-06T09:50:27.690Z,101524.56
2022-10-06T09:53:01.796Z,101530.78
2022-10-06T09:55:54.682Z,101532.66
2022-10-06T10:01:30.114Z,101538.31
2022-10-06T10:04:19.387Z,101533.03
2022-10-06T10:06:48.724Z,101551.72
2022-10-06T10:09:21.923Z,101551.00
2022-10-06T10:12:30.994Z,101556.69
2022-10-06T10:15:23.040Z,101554.28
2022-10-06T10:17:55.868Z,101552.72
2022-10-06T10:20:52.167Z,101552.56
2022-10-06T10:23:31.927Z,101546.59
2022-10-06T10:26:21.908Z,101544.59
2022-10-06T10:29:03.355Z,101544.38
2022-10-06T10:31:53.780Z,101545.44
2022-10-06T10:34:43.115Z,101531.78
2022-10-06T10:37:26.817Z,101541.16
2022-10-06T10:40:13.291Z,101542.53
2022-10-06T10:43:12.227Z,101549.50
2022-10-06T10:45:53.437Z,101565.34
2022-10-06T10:48:43.790Z,101567.09
2022-10-06T10:51:23.857Z,101574.88
2022-10-06T10:54:05.196Z,101566.16
2022-10-06T10:56:34.915Z,101568.31
2022-10-06T10:59:26.458Z,101575.44
2022-10-06T11:02:12.119Z,101563.97
2022-10-06T11:04:47.190Z,101571.38
2022-10-06T11:07:36.090Z,101584.31
2022-10-06T11:10:26.261Z,101580.94
2022-10-06T11:13:21.203Z,101581.09
2022-10-06T11:16:05.701Z,101575.72
2022-10-06T11:19:14.750Z,101583.28
2022-10-06T11:21:52.506Z,101569.00
2022-10-06T11:24:24.817Z,101573.03
2022-10-06T11:27:18.088Z,101571.69
2022-10-06T11:30:14.996Z,101574.69
2022-10-06T11:33:29.702Z,101579.41
2022-10-06T11:35:58.174Z,101578.25
2022-10-06T11:38:48.062Z,101574.56
2022-10-06T11:41:32.436Z,101585.81
2022-10-06T11:44:31.114Z,101576.22
2022-10-06T11:47:35.320Z,101577.19
2022-10-06T11:50:13.890Z,101571.16
2022-10-06T11:52:47.128Z,101566.06
2022-10-06T11:55:18.704Z,101568.47
2022-10-06T11:58:54.951Z,101572.50
2022-10-06T12:01:33.507Z,101566.63
2022-10-06T12:04:10.443Z,101574.88
2022-10-06T12:06:44.526Z,101570.31
2022-10-06T12:09:28.837Z,101567.44
2022-10-06T12:12:17.832Z,101569.69
2022-10-06T12:16:58.132Z,101566.78
2022-10-06T12:18:06.205Z,101566.06
2022-10-06T12:21:08.220Z,101558.31
2022-10-06T12:23:41.748Z,101567.38
2022-10-06T12:26:29.743Z,101568.88
2022-10-06T12:29:35.866Z,101567.03
2022-10-06T12:32:24.469Z,101566.38
2022-10-06T12:35:03.938Z,101567.03
2022-10-06T12:37:52.997Z,101567.50
2022-10-06T12:40:40.528Z,101572.03
2022-10-06T12:43:14.552Z,101560.75
2022-10-06T12:46:19.339Z,101564.53
2022-10-06T12:49:04.419Z,101549.59
2022-10-06T12:51:47.466Z,101554.78
2022-10-06T12:54:19.492Z,101551.63
2022-10-06T12:57:19.994Z,101567.72
2022-10-06T12:59:49.556Z,101559.28
2022-10-06T13:02:23.825Z,101565.97
2022-10-06T13:05:03.732Z,101559.75
2022-10-06T13:07:35.105Z,101561.06
2022-10-06T13:10:22.173Z,101563.38
2022-10-06T13:12:52.304Z,101563.56
2022-10-06T13:15:22.378Z,101553.25
2022-10-06T13:18:08.681Z,101559.47
2022-10-06T13:20:49.058Z,101558.63
2022-10-06T13:23:24.523Z,101562.16
2022-10-06T13:26:00.153Z,101558.47
2022-10-06T13:28:31.498Z,101554.94
2022-10-06T13:31:11.431Z,101557.44
2022-10-06T13:33:45.753Z,101555.41
2022-10-06T13:36:14.770Z,101557.06
2022-10-06T13:38:43.638Z,101553.81
2022-10-06T13:41:14.764Z,101560.06
2022-10-06T13:44:07.807Z,101562.09
2022-10-06T13:46:42.653Z,101560.97
2022-10-06T13:49:25.060Z,101566.25
2022-10-06T13:51:59.833Z,101558.72
2022-10-06T13:54:40.591Z,101558.72
2022-10-06T13:57:48.714Z,101558.91
2022-10-06T14:00:20.019Z,101563.44
2022-10-06T14:02:55.403Z,101559.91
2022-10-06T14:05:31.513Z,101555.19
2022-10-06T14:08:02.921Z,101563.44
2022-10-06T14:10:37.895Z,101556.84
2022-10-06T14:13:16.994Z,101556.41
2022-10-06T14:15:59.418Z,101560.75
2022-10-06T14:18:33.732Z,101565.50
2022-10-06T14:21:45.244Z,101568.19
2022-10-06T14:24:22.381Z,101570.19
2022-10-06T14:26:52.105Z,101565.75
2022-10-06T14:29:20.758Z,101563.06
2022-10-06T14:31:49.398Z,101567.63
2022-10-06T14:34:21.671Z,101564.28
2022-10-06T14:36:52.499Z,101566.03
2022-10-06T14:39:20.935Z,101571.25
2022-10-06T14:41:49.320Z,101573.09
2022-10-06T14:44:17.694Z,101580.22
2022-10-06T14:46:49.538Z,101573.53
2022-10-06T14:49:18.269Z,101576.78
2022-10-06T14:51:46.959Z,101575.72
2022-10-06T14:54:15.354Z,101565.16
2022-10-06T14:56:44.578Z,101566.19
2022-10-06T14:59:17.131Z,101572.50
2022-10-06T15:01:45.989Z,101577.75
2022-10-06T15:04:26.627Z,101569.16
2022-10-06T15:07:12.352Z,101569.34
2022-10-06T15:09:40.776Z,101570.06
2022-10-06T15:12:09.171Z,101568.94
2022-10-06T15:14:39.843Z,101571.13
2022-10-06T15:17:08.736Z,101552.00
2022-10-06T15:19:37.737Z,101558.78
2022-10-06T15:22:08.849Z,101551.06
2022-10-06T15:24:37.220Z,101555.97
2022-10-06T15:27:25.108Z,101556.31
2022-10-06T15:29:53.743Z,101552.31
2022-10-06T15:32:23.680Z,101563.22
2022-10-06T15:34:53.093Z,101560.25
2022-10-06T15:37:21.789Z,101561.97
2022-10-06T15:39:52.396Z,101559.16
2022-10-06T15:42:24.206Z,101564.03
2022-10-06T15:44:52.916Z,101563.53
2022-10-06T15:47:21.324Z,101555.69
2022-10-06T15:49:49.883Z,101564.91
2022-10-06T15:52:19.004Z,101570.63
2022-10-06T15:54:50.048Z,101570.81
2022-10-06T15:57:21.302Z,101571.16
2022-10-06T15:59:50.232Z,101568.16
2022-10-06T16:02:20.464Z,101569.69
2022-10-06T16:05:17.417Z,101571.06
2022-10-06T16:07:45.879Z,101563.19
2022-10-06T16:10:14.292Z,101564.06
2022-10-06T16:12:42.944Z,101569.28
2022-10-06T16:15:11.954Z,101573.47
2022-10-06T16:17:40.544Z,101577.84
2022-10-06T16:20:09.668Z,101573.84
2022-10-06T16:22:38.252Z,101572.84
2022-10-06T16:25:07.343Z,101578.72
2022-10-06T16:27:35.758Z,101573.03
2022-10-06T16:30:04.506Z,101574.38
2022-10-06T16:32:32.866Z,101570.53
2022-10-06T16:35:01.444Z,101583.94
2022-10-06T16:37:29.964Z,101588.31
2022-10-06T16:39:58.588Z,101584.66
2022-10-06T16:42:27.304Z,101587.97
2022-10-06T16:44:55.837Z,101589.66
2022-10-06T16:47:24.185Z,101586.81
2022-10-06T16:49:52.675Z,101590.84
2022-10-06T16:52:21.071Z,101601.19
2022-10-06T16:54:49.603Z,101600.22
2022-10-06T16:57:18.417Z,101591.66
2022-10-06T16:59:47.211Z,101603.66
2022-10-06T17:02:15.760Z,101598.78
2022-10-06T17:04:44.495Z,101607.34
2022-10-06T17:07:13.084Z,101603.63
2022-10-06T17:09:56.051Z,101607.63
2022-10-06T17:12:30.197Z,101613.50
2022-10-06T17:14:58.526Z,101619.47
2022-10-06T17:17:26.941Z,101615.94
2022-10-06T17:19:55.346Z,101615.44
2022-10-06T17:22:23.841Z,101616.41
2022-10-06T17:24:52.283Z,101616.34
2022-10-06T17:27:20.767Z,101619.84
2022-10-06T17:29:49.233Z,101621.47
2022-10-06T17:32:18.363Z,101614.94
2022-10-06T17:34:46.782Z,101618.22
2022-10-06T17:37:15.423Z,101620.53
2022-10-06T17:39:47.053Z,101620.19
2022-10-06T17:42:16.317Z,101620.78
2022-10-06T17:44:45.563Z,101617.91
2022-10-06T17:47:13.977Z,101617.41
2022-10-06T17:49:42.375Z,101619.56
2022-10-06T17:52:11.798Z,101621.81
2022-10-06T17:54:41.538Z,101623.97
2022-10-06T17:57:10.069Z,101629.63
2022-10-06T17:59:39.150Z,101630.25
2022-10-06T18:02:09.303Z,101624.53
2022-10-06T18:04:39.110Z,101630.34
2022-10-06T18:07:10.222Z,101629.81
2022-10-06T18:09:38.742Z,101622.94
2022-10-06T18:12:07.856Z,101624.78
2022-10-06T18:14:36.332Z,101626.06
2022-10-06T18:17:04.787Z,101621.03
2022-10-06T18:19:36.329Z,101629.34
2022-10-06T18:22:11.691Z,101630.66
2022-10-06T18:24:41.408Z,101634.66
2022-10-06T18:27:10.294Z,101620.88
2022-10-06T18:29:40.015Z,101623.88
2022-10-06T18:33:10.831Z,101624.34
2022-10-06T18:37:45.694Z,101633.25
2022-10-06T18:40:14.812Z,101626.00
2022-10-06T18:42:43.704Z,101625.06
2022-10-06T18:45:33.177Z,101628.19
2022-10-06T18:48:21.390Z,101626.41
2022-10-06T18:51:06.260Z,101628.69
2022-10-06T18:53:38.406Z,101633.66
2022-10-06T18:56:07.587Z,101633.66
2022-10-06T18:58:42.780Z,101641.22
2022-10-06T19:01:12.876Z,101629.69
2022-10-06T19:03:41.718Z,101637.84
2022-10-06T19:06:10.388Z,101638.00
2022-10-06T19:08:39.077Z,101644.66
2022-10-06T19:11:26.129Z,101647.06
2022-10-06T19:13:57.556Z,101646.81
2022-10-06T19:16:26.024Z,101643.72
2022-10-06T19:18:55.234Z,101651.47
2022-10-06T19:21:23.639Z,101649.91
2022-10-06T19:23:52.427Z,101643.63
2022-10-06T19:26:22.703Z,101649.50
2022-10-06T19:28:53.682Z,101656.53
2022-10-06T19:31:26.939Z,101653.72
2022-10-06T19:33:58.964Z,101658.06
2022-10-06T19:36:30.964Z,101652.88
2022-10-06T19:39:01.882Z,101662.16
2022-10-06T19:41:47.704Z,101666.06
2022-10-06T19:44:18.290Z,101663.00
2022-10-06T19:46:46.729Z,101669.63
2022-10-06T19:49:15.156Z,101669.06
2022-10-06T19:51:43.642Z,101663.34
2022-10-06T19:54:13.656Z,101666.28
2022-10-06T19:56:42.691Z,101668.25
2022-10-06T19:59:17.285Z,101670.78
2022-10-06T20:01:46.560Z,101675.56
2022-10-06T20:04:15.692Z,101667.16
2022-10-06T20:06:46.785Z,101678.25
2022-10-06T20:09:19.222Z,101673.22
2022-10-06T20:11:50.316Z,101687.97
2022-10-06T20:14:25.409Z,101681.91
2022-10-06T20:16:55.751Z,101673.53
2022-10-06T20:19:25.486Z,101679.69
2022-10-06T20:21:54.226Z,101680.69
2022-10-06T20:24:25.913Z,101680.69
2022-10-06T20:26:54.818Z,101687.28
2022-10-06T20:29:26.449Z,101681.94
2022-10-06T20:31:58.821Z,101678.59
2022-10-06T20:34:32.176Z,101672.69
2022-10-06T20:37:05.210Z,101666.53
2022-10-06T20:39:52.511Z,101675.66
2022-10-06T20:42:22.225Z,101674.25
2022-10-06T20:44:50.679Z,101676.22
2022-10-06T20:47:18.986Z,101662.16
2022-10-06T20:49:55.501Z,101673.69
2022-10-06T20:52:24.938Z,101674.38
2022-10-06T20:54:53.344Z,101674.53
2022-10-06T20:57:22.005Z,101672.13
2022-10-06T20:59:50.723Z,101667.94
2022-10-06T21:02:19.078Z,101663.69
2022-10-06T21:04:47.600Z,101668.06
2022-10-06T21:07:16.128Z,101667.78
2022-10-06T21:09:47.554Z,101665.28
2022-10-06T21:12:20.536Z,101668.91
2022-10-06T21:14:48.880Z,101663.13
2022-10-06T21:17:17.408Z,101664.56
2022-10-06T21:19:45.501Z,101666.81
2022-10-06T21:22:13.919Z,101665.25
2022-10-06T21:24:41.912Z,101665.53
2022-10-06T21:27:10.933Z,101656.72
2022-10-06T21:29:39.268Z,101654.84
2022-10-06T21:32:10.197Z,101645.19
2022-10-06T21:34:40.237Z,101657.69
2022-10-06T21:37:08.596Z,101655.00
2022-10-06T21:39:37.008Z,101654.31
2022-10-06T21:42:05.415Z,101651.09
2022-10-06T21:44:33.761Z,101646.03
2022-10-06T21:47:03.112Z,101647.16
2022-10-06T21:49:31.577Z,101647.44
2022-10-06T21:52:04.681Z,101646.06
2022-10-06T21:54:32.884Z,101651.91
2022-10-06T21:57:00.912Z,101645.78
2022-10-06T21:59:29.294Z,101639.72
2022-10-06T22:01:57.998Z,101641.13
2022-10-06T22:04:26.443Z,101641.53
2022-10-06T22:06:55.235Z,101640.97
2022-10-06T22:12:15.788Z,101643.50
2022-10-06T22:14:43.754Z,101641.25
2022-10-06T22:17:12.426Z,101637.03
2022-10-06T22:19:40.886Z,101633.69
2022-10-06T22:22:09.278Z,101637.31
2022-10-06T22:24:37.650Z,101647.28
2022-10-06T22:27:05.809Z,101644.72
2022-10-06T22:29:33.839Z,101638.56
2022-10-06T22:32:01.821Z,101630.00
2022-10-06T22:34:30.310Z,101634.50
2022-10-06T22:36:58.324Z,101629.88
2022-10-06T22:39:26.684Z,101629.72
2022-10-06T22:41:55.074Z,101623.59
2022-10-06T22:44:23.411Z,101630.16
2022-10-06T22:46:51.899Z,101626.22
2022-10-06T22:49:20.389Z,101623.94
2022-10-06T22:51:48.858Z,101625.91
2022-10-06T22:54:22.314Z,101620.84
2022-10-06T22:56:50.851Z,101622.94
2022-10-06T22:59:19.303Z,101623.06
2022-10-06T23:01:47.258Z,101626.00
2022-10-06T23:04:15.941Z,101627.53
2022-10-06T23:06:44.357Z,101622.09
2022-10-06T23:09:13.366Z,101617.75
2022-10-06T23:11:41.998Z,101621.25
2022-10-06T23:14:10.722Z,101613.53
2022-10-06T23:16:39.304Z,101606.78
2022-10-06T23:19:07.398Z,101605.38
2022-10-06T23:21:37.013Z,101599.22
2022-10-06T23:24:05.151Z,101604.53
2022-10-06T23:26:34.182Z,101600.91
2022-10-06T23:29:03.955Z,101605.53
2022-10-06T23:31:32.129Z,101602.88
2022-10-06T23:34:00.560Z,101609.44
2022-10-06T23:36:28.568Z,101601.84
2022-10-06T23:38:57.170Z,101601.16
2022-10-06T23:41:25.557Z,101607.84
2022-10-06T23:43:53.614Z,101608.41
2022-10-06T23:46:22.143Z,101609.50
2022-10-06T23:48:50.152Z,101609.91
2022-10-06T23:51:18.686Z,101604.84
2022-10-06T23:53:48.408Z,101610.28
2022-10-06T23:56:18.914Z,101613.94
2022-10-06T23:58:47.606Z,101608.59
